Montauk, New York
Current Conditions -  °F | °C
As of 11:56 AM on Thursday 23 Oct 2014 (Local Time) from KGON Reporting Station
Overcast Overcast  
Wind Chill: 56°   Ceiling: 2000
Heat Index: 56°   Visibility: 10mi
Dew Point: 49°   Wind: 14mph
Humidity: 77%   Direction: 10°N
Pressure: 29.6"   Gusts: 26mph
Location:  41.04°N, 71.95°W
Report Text: KGON 231556Z 01012G23KT 10SM OVC020 13/09 A2960 RMK AO2 SLP022 T01330094
Loading
Personal Weather Stations






























Interactive Weather Map New forecast layout! Learn more

10-Day Weather Forecast

Advertisements
Track Severe Weather on mobile